Data for 05/29/2017

Time Sea-Level Adjusted Pressure Absolute Pressure Temperature Relative Humidity Dew Point   
(mb) (inHg) (mb) (inHg) (C) (F) (%) (C) (F)
00:05 1025 30.27 855 25.25 12 53.5 57 3.8 38.8
00:10 1025 30.27 855 25.25 11.8 53.3 57 3.7 38.7
00:15 1025 30.27 855 25.25 11.8 53.2 58 3.7 38.7
00:20 1025 30.27 855 25.25 11.7 53 58 3.7 38.6
00:25 1025 30.27 855 25.25 11.4 52.6 59 3.6 38.6
00:30 1025 30.27 855 25.25 11.2 52.1 60 3.7 38.6
00:35 1025 30.27 855 25.25 11 51.8 60 3.7 38.7
00:40 1025 30.27 855 25.25 10.8 51.5 61 3.8 38.8
00:45 1025 30.27 855 25.25 10.6 51.1 63 3.8 38.8
00:50 1025 30.27 855 25.25 10.4 50.7 63 3.7 38.7
00:55 1025 30.27 855 25.25 10.3 50.6 64 3.7 38.7
01:00 1025 30.27 855 25.25 10.3 50.5 65 4 39.3
01:05 1025 30.27 855 25.25 10.2 50.3 65 3.9 39.1
01:10 1025 30.27 855 25.25 10 50.1 66 4 39.2
01:15 1025 30.27 855 25.25 9.8 49.7 67 4 39.3
01:20 1025 30.27 855 25.25 9.7 49.5 67 3.9 39
01:25 1025 30.27 855 25.25 9.6 49.2 68 4 39.2
01:30 1025 30.27 855 25.25 9.5 49.1 67 3.8 38.8
01:35 1025 30.27 855 25.25 9.7 49.4 67 3.8 38.9
01:40 1026 30.3 855 25.25 10 50 65 3.8 38.9
01:45 1026 30.3 855 25.25 10.3 50.5 64 3.8 38.9
01:50 1026 30.3 855 25.25 10.2 50.4 65 4.1 39.3
01:55 1026 30.3 855 25.25 10.1 50.2 64 3.6 38.4
02:00 1026 30.3 855 25.25 10.3 50.5 63 3.6 38.5
02:05 1026 30.3 855 25.25 10.1 50.2 65 3.8 38.9
02:10 1026 30.3 855 25.25 9.8 49.6 65 3.6 38.4
02:15 1026 30.3 855 25.25 9.5 49 67 3.7 38.6
02:20 1026 30.3 855 25.25 9 48.2 68 3.3 38
02:25 1026 30.3 855 25.25 9.1 48.4 67 3.3 38
02:30 1026 30.3 855 25.25 8.9 48 68 3.4 38.2
02:35 1026 30.3 855 25.25 8.7 47.6 68 3.2 37.8
02:40 1026 30.3 855 25.25 8.7 47.7 68 3.2 37.7
02:45 1025 30.27 855 25.25 8.7 47.7 68 3.2 37.7
02:50 1025 30.27 855 25.25 8.8 47.9 67 3 37.4
02:55 1025 30.27 855 25.25 8.9 47.9 67 3.1 37.6
03:00 1025 30.27 855 25.25 8.7 47.6 69 3.2 37.8
03:05 1025 30.27 855 25.25 8.4 47.1 70 3.3 37.9
03:10 1025 30.27 855 25.25 8.2 46.7 70 3.1 37.6
03:15 1025 30.27 855 25.25 8.3 46.9 70 3.1 37.5
03:20 1025 30.27 855 25.25 8.4 47.1 69 3.1 37.6
03:25 1025 30.27 855 25.25 8.3 47 70 3.2 37.7
03:30 1025 30.27 855 25.25 8.2 46.7 71 3.2 37.7
03:35 1025 30.27 855 25.25 8 46.3 71 3 37.4
03:40 1025 30.27 855 25.25 8 46.4 69 2.7 36.9
03:45 1026 30.3 855 25.25 8.3 47 69 2.9 37.3
03:50 1026 30.3 855 25.25 8.4 47.2 68 2.8 37.1
03:55 1025 30.27 855 25.25 8.7 47.6 64 2.2 36
04:00 1026 30.3 855 25.25 8.8 47.8 65 2.7 36.8
04:05 1026 30.3 855 25.25 8.8 47.8 65 2.6 36.7
04:10 1026 30.3 855 25.25 8.6 47.4 67 2.9 37.2
04:15 1026 30.3 855 25.25 8 46.3 70 2.8 37.1
04:20 1026 30.3 855 25.25 7.8 46 71 2.8 37
04:25 1026 30.3 855 25.25 7.8 46 71 2.8 37
04:30 1026 30.3 855 25.25 7.8 46 70 2.7 36.8
04:35 1026 30.3 855 25.25 7.8 46.1 70 2.8 37
04:40 1026 30.3 855 25.25 8 46.4 69 2.7 36.9
04:45 1026 30.3 855 25.25 7.8 46 69 2.5 36.6
04:50 1026 30.3 855 25.25 7.8 46.1 69 2.5 36.5
04:55 1026 30.3 855 25.25 7.8 46.1 69 2.5 36.5
05:00 1026 30.3 855 25.25 7.6 45.8 70 2.6 36.6
05:05 1026 30.3 855 25.25 7.5 45.6 70 2.5 36.5
05:10 1026 30.3 855 25.25 7.5 45.5 70 2.4 36.3
05:15 1026 30.3 855 25.25 7.5 45.5 70 2.4 36.3
05:20 1026 30.3 855 25.25 7.7 45.8 69 2.3 36.2
05:25 1026 30.3 855 25.25 7.8 46 69 2.4 36.3
05:30 1026 30.3 855 25.25 7.7 45.9 69 2.4 36.3
05:35 1026 30.3 855 25.25 7.7 45.8 69 2.4 36.3
05:40 1026 30.3 855 25.25 7.5 45.5 69 2.3 36.1
05:45 1026 30.3 855 25.25 7.5 45.5 68 2.1 35.8
05:50 1026 30.3 855 25.25 7.5 45.6 69 2.3 36.2
05:55 1026 30.3 855 25.25 7.4 45.4 68 2 35.6
06:00 1026 30.3 855 25.25 7.3 45.2 69 2.1 35.8
06:05 1026 30.3 855 25.25 7.5 45.4 68 2 35.5
06:10 1026 30.3 855 25.25 7.8 46.1 68 2.3 36.1
06:15 1026 30.3 855 25.25 7.7 45.8 69 2.4 36.3
06:20 1026 30.3 855 25.25 7.5 45.5 70 2.4 36.2
06:25 1026 30.3 855 25.25 7.4 45.2 70 2.3 36.1
06:30 1026 30.3 855 25.25 7.1 44.8 71 2.3 36.2
06:35 1026 30.3 855 25.25 7.1 44.8 72 2.4 36.3
06:40 1026 30.3 855 25.25 7.4 45.2 71 2.5 36.5
06:45 1026 30.3 855 25.25 7.6 45.6 71 2.6 36.7
06:50 1026 30.3 855 25.25 7.7 45.9 70 2.6 36.7
06:55 1026 30.3 855 25.25 7.9 46.2 69 2.7 36.8
07:00 1026 30.3 855 25.25 8.1 46.5 69 2.7 36.9
07:05 1026 30.3 855 25.25 8.3 46.9 68 2.8 37.1
07:10 1026 30.3 855 25.25 8.5 47.3 68 2.9 37.2
07:15 1026 30.3 855 25.25 8.9 48 66 3 37.4
07:20 1026 30.3 855 25.25 9.3 48.8 66 3.3 37.9
07:25 1026 30.3 855 25.25 9.7 49.4 65 3.4 38.2
07:30 1026 30.3 855 25.25 10.1 50.1 63 3.4 38.1
07:35 1026 30.3 855 25.25 10.4 50.7 63 3.7 38.7
07:40 1026 30.3 855 25.25 10.7 51.2 62 3.8 38.8
07:45 1026 30.3 855 25.25 10.9 51.7 62 3.9 39
07:50 1026 30.3 855 25.25 11.2 52.2 60 3.9 39
07:55 1026 30.3 855 25.25 11.4 52.5 58 3.5 38.3
08:00 1026 30.3 855 25.25 11.8 53.2 58 3.8 38.8
08:05 1026 30.3 855 25.25 12.5 54.5 55 3.8 38.8
08:10 1026 30.3 855 25.25 12.8 55.1 54 3.7 38.6
08:15 1026 30.3 855 25.25 12.9 55.3 54 3.8 38.9
08:20 1026 30.3 855 25.25 12.9 55.1 53 3.7 38.6
08:25 1026 30.3 855 25.25 13.2 55.7 51 3.3 38
08:30 1026 30.3 855 25.25 14.2 57.6 49 3.8 38.8
08:35 1026 30.3 855 25.25 15 58.9 48 4.2 39.5
08:40 1026 30.3 855 25.25 14.8 58.6 48 4.1 39.3
08:45 1026 30.3 855 25.25 14.8 58.6 49 4.3 39.7
08:50 1026 30.3 855 25.25 15 59 50 4.7 40.5
08:55 1026 30.3 855 25.25 14.7 58.4 51 4.6 40.3
09:00 1026 30.3 855 25.25 14.9 58.9 50 4.7 40.5
09:05 1026 30.3 855 25.25 14.3 57.8 55 5.5 42
09:10 1026 30.3 855 25.25 13.9 57 54 4.8 40.6
09:15 1026 30.3 855 25.25 14.9 58.7 50 4.7 40.4
09:20 1026 30.3 855 25.25 15.3 59.5 50 5.1 41.2
09:25 1026 30.3 855 25.25 15.2 59.3 50 5 41.1
09:30 1026 30.3 855 25.25 15 59 50 4.7 40.5
09:35 1026 30.3 855 25.25 14.9 58.9 49 4.3 39.7
09:40 1026 30.3 855 25.25 15.9 60.7 44 3.7 38.7
09:45 1026 30.3 855 25.25 16.9 62.4 42 4.1 39.3
09:50 1026 30.3 855 25.25 17.2 62.9 43 4.7 40.4
09:55 1026 30.3 855 25.25 17.3 63.2 43 4.6 40.3
10:00 1026 30.3 855 25.25 17.1 62.9 41 4 39.2
10:05 1026 30.3 855 25.25 16.5 61.7 46 4.8 40.7
10:10 1026 30.3 855 25.25 16.8 62.2 43 4.2 39.6
10:15 1026 30.3 855 25.25 16.9 62.5 43 4.5 40.2
10:20 1026 30.3 855 25.25 16.3 61.4 45 4.6 40.2
10:25 1025 30.27 855 25.25 17.3 63.2 40 3.8 38.9
10:30 1025 30.27 855 25.25 17.5 63.5 43 4.9 40.9
10:35 1025 30.27 855 25.25 17.4 63.2 41 4 39.2
10:40 1025 30.27 855 25.25 17.6 63.8 42 4.6 40.3
10:45 1025 30.27 855 25.25 17.6 63.7 40 3.9 39
10:50 1025 30.27 855 25.25 18 64.4 38 3.6 38.4
10:55 1025 30.27 854 25.22 18.6 65.5 37 3.9 39
11:00 1025 30.27 854 25.22 18.8 65.9 37 4 39.1
11:05 1025 30.27 854 25.22 19.2 66.6 37 4.2 39.5
11:10 1025 30.27 854 25.22 19 66.1 37 4.2 39.5
11:15 1025 30.27 854 25.22 19.6 67.3 36 4.1 39.4
11:20 1025 30.27 854 25.22 20 68 35 4.3 39.7
11:25 1025 30.27 854 25.22 20 68 34 3.8 38.8
11:30 1025 30.27 854 25.22 19 66.2 36 3.6 38.4
11:35 1025 30.27 854 25.22 19.3 66.8 35 3.7 38.6
11:40 1025 30.27 854 25.22 19.6 67.2 34 3.4 38.1
11:45 1025 30.27 854 25.22 20.3 68.6 31 2.7 36.9
11:50 1025 30.27 854 25.22 20.7 69.3 31 3 37.4
11:55 1025 30.27 854 25.22 20.5 69 30 2.6 36.6
12:00 1025 30.27 854 25.22 20.6 69.1 30 2.8 37.1
12:05 1025 30.27 854 25.22 20.4 68.6 29 2 35.6
12:10 1025 30.27 854 25.22 20.6 69.1 30 2.4 36.3
12:15 1025 30.27 854 25.22 20.3 68.6 29 1.6 35
12:20 1025 30.27 854 25.22 21.2 70.1 26 1.1 34.1
12:25 1025 30.27 854 25.22 21 69.7 27 1.4 34.6
12:30 1025 30.27 854 25.22 21 69.8 26 1.1 34
12:35 1025 30.27 854 25.22 21.4 70.4 25 0.8 33.4
12:40 1025 30.27 854 25.22 20.7 69.2 27 1 33.8
12:45 1024 30.24 854 25.22 20.1 68.2 27 0.6 33.1
12:50 1024 30.24 854 25.22 19.8 67.6 27 0.6 33.1
12:55 1024 30.24 854 25.22 20.8 69.5 26 0.6 33.1
13:00 1024 30.24 854 25.22 21.4 70.6 26 1.2 34.2
13:05 1024 30.24 854 25.22 21.8 71.3 25 1.1 33.9
13:10 1024 30.24 853 25.19 22 71.6 23 0.4 32.7
13:15 1024 30.24 853 25.19 21.7 71 24 0.4 32.7
13:20 1024 30.24 853 25.19 21.6 71 25 0.8 33.4
13:25 1024 30.24 853 25.19 22.4 72.2 22 -0.3 31.5
13:30 1024 30.24 853 25.19 22.5 72.5 22 0.2 32.4
13:35 1024 30.24 853 25.19 22.4 72.3 22 -0.1 31.8
13:40 1024 30.24 853 25.19 22.4 72.2 21 -0.6 30.8
13:45 1024 30.24 853 25.19 22.5 72.4 24 0.9 33.5
13:50 1024 30.24 853 25.19 22.3 72.1 24 0.9 33.6
13:55 1024 30.24 853 25.19 22.5 72.4 22 -0.1 31.9
14:00 1024 30.24 853 25.19 21.7 71.1 23 -0.1 31.7
14:05 1024 30.24 853 25.19 22.3 72.2 22 -0.4 31.2
14:10 1024 30.24 853 25.19 22.7 72.9 22 -0.1 31.8
14:15 1024 30.24 853 25.19 21.6 70.9 23 -0.2 31.7
14:20 1024 30.24 853 25.19 22.5 72.6 20 -1.2 29.8
14:25 1024 30.24 853 25.19 23.3 73.9 19 -1.4 29.4
14:30 1024 30.24 853 25.19 23.3 73.9 18 -1.8 28.7
14:35 1024 30.24 853 25.19 23 73.4 20 -1.2 29.9
14:40 1023 30.21 853 25.19 22.8 73.1 21 -0.3 31.4
14:45 1023 30.21 853 25.19 23.3 73.9 15 -4.2 24.4
14:50 1023 30.21 853 25.19 23.4 74.2 18 -1.7 29
14:55 1023 30.21 853 25.19 23.9 75 18 -1.6 29.2
15:00 1023 30.21 853 25.19 23.5 74.2 19 -1.1 30.1
15:05 1023 30.21 853 25.19 23.7 74.7 18 -1.9 28.5
15:10 1023 30.21 853 25.19 23.8 74.8 19 -0.9 30.5
15:15 1023 30.21 852 25.16 23.8 74.8 18 -2.1 28.2
15:20 1023 30.21 852 25.16 23.6 74.5 18 -1.7 29
15:25 1023 30.21 852 25.16 23.7 74.6 19 -0.8 30.5
15:30 1023 30.21 852 25.16 23.3 74 20 -0.5 31.1
15:35 1023 30.21 852 25.16 22.6 72.7 20 -1.4 29.5
15:40 1023 30.21 852 25.16 23.1 73.6 19 -1.3 29.7
15:45 1023 30.21 852 25.16 22.7 72.8 18 -2.4 27.7
15:50 1023 30.21 852 25.16 23.3 74 19 -1.4 29.5
15:55 1023 30.21 852 25.16 24.3 75.7 15 -3.7 25.4
16:00 1023 30.21 852 25.16 24.6 76.2 16 -3.1 26.5
16:05 1023 30.21 852 25.16 24.2 75.6 17 -2 28.4
16:10 1023 30.21 852 25.16 23.8 74.8 18 -2 28.5
16:15 1023 30.21 852 25.16 24 75.1 16 -3.4 25.9
16:20 1022 30.18 852 25.16 24.2 75.5 17 -2.4 27.7
16:25 1022 30.18 852 25.16 23.8 74.8 15 -4.2 24.5
16:30 1022 30.18 852 25.16 23.1 73.6 15 -4.9 23.2
16:35 1022 30.18 852 25.16 24 75.2 15 -4.1 24.7
16:40 1022 30.18 851 25.13 23.7 74.7 17 -2.4 27.7
16:45 1022 30.18 851 25.13 24.2 75.6 16 -2.8 26.9
16:50 1022 30.18 851 25.13 24.1 75.4 15 -4 24.8
16:55 1022 30.18 851 25.13 23.1 73.6 16 -3.9 24.9
17:00 1022 30.18 851 25.13 23.9 75 15 -3.9 25.1
17:05 1022 30.18 851 25.13 23.7 74.6 15 -4 24.8
17:10 1022 30.18 851 25.13 23.7 74.7 15 -4 24.8
17:15 1022 30.18 851 25.13 24 75.1 15 -4.1 24.6
17:20 1022 30.18 851 25.13 24.1 75.3 15 -3.7 25.4
17:25 1022 30.18 851 25.13 24.1 75.3 15 -3.6 25.4
17:30 1022 30.18 851 25.13 24 75.2 15 -4.3 24.3
17:35 1022 30.18 851 25.13 23.1 73.5 15 -5 23
17:40 1022 30.18 851 25.13 22.7 72.8 15 -5.1 22.7
17:45 1022 30.18 851 25.13 23.1 73.6 17 -3 26.6
17:50 1022 30.18 851 25.13 23.4 74.1 17 -3.1 26.3
17:55 1022 30.18 851 25.13 22.6 72.7 18 -2.9 26.7
18:00 1022 30.18 851 25.13 23.2 73.7 17 -2.7 27.1
18:05 1022 30.18 851 25.13 23.6 74.5 17 -2.6 27.3
18:10 1022 30.18 851 25.13 23.8 74.8 15 -3.8 25.2
18:15 1022 30.18 851 25.13 23.6 74.5 15 -4.5 24
18:20 1022 30.18 851 25.13 23.6 74.6 15 -4.3 24.3
18:25 1022 30.18 851 25.13 23.7 74.6 15 -4.7 23.6
18:30 1021 30.15 851 25.13 23.8 74.9 15 -4.6 23.8
18:35 1021 30.15 851 25.13 23.8 74.9 15 -4.1 24.6
18:40 1021 30.15 851 25.13 23.3 73.9 17 -3.2 26.2
18:45 1021 30.15 851 25.13 23.1 73.5 17 -3.2 26.2
18:50 1021 30.15 851 25.13 23.1 73.6 15 -4.4 24
18:55 1021 30.15 851 25.13 22.8 73 16 -4.5 23.8
19:00 1021 30.15 851 25.13 22.5 72.5 15 -4.9 23.2
19:05 1021 30.15 851 25.13 22.3 72.2 15 -5.1 22.8
19:10 1021 30.15 851 25.13 22.3 72.2 15 -5.2 22.6
19:15 1021 30.15 851 25.13 21.9 71.5 16 -5 23
19:20 1021 30.15 851 25.13 21.5 70.8 17 -4.1 24.6
19:25 1021 30.15 851 25.13 21.5 70.6 18 -4 24.7
19:30 1021 30.15 851 25.13 21.3 70.4 18 -3.7 25.3
19:35 1021 30.15 851 25.13 21.2 70.2 19 -3.1 26.4
19:40 1021 30.15 851 25.13 21.2 70.2 18 -3.6 25.6
19:45 1021 30.15 851 25.13 21.1 70 19 -3.5 25.7
19:50 1021 30.15 851 25.13 21.2 70.2 18 -3.8 25.2
19:55 1021 30.15 851 25.13 21 69.8 18 -3.8 25.1
20:00 1021 30.15 851 25.13 20.9 69.5 19 -3.5 25.8
20:05 1021 30.15 851 25.13 21 69.9 19 -3 26.6
20:10 1021 30.15 851 25.13 20.9 69.5 19 -3.2 26.3
20:15 1021 30.15 851 25.13 20.7 69.3 20 -3.2 26.3
20:20 1021 30.15 851 25.13 20.7 69.2 20 -3.1 26.5
20:25 1021 30.15 851 25.13 20.7 69.2 20 -2.9 26.8
20:30 1021 30.15 851 25.13 20.6 69.1 20 -2.9 26.8
20:35 1021 30.15 851 25.13 20.5 68.9 21 -2.2 28.1
20:40 1022 30.18 851 25.13 20.3 68.5 23 -1.4 29.5
20:45 1022 30.18 851 25.13 19.7 67.4 30 1.9 35.5
20:50 1022 30.18 851 25.13 18.4 65.1 35 2.8 37.1
20:55 1022 30.18 851 25.13 17.6 63.7 38 3.2 37.8
21:00 1022 30.18 851 25.13 17.2 63 40 3.5 38.3
21:05 1022 30.18 851 25.13 17 62.5 41 3.6 38.6
21:10 1022 30.18 851 25.13 16.7 62.1 42 3.8 38.8
21:15 1022 30.18 851 25.13 16.6 61.8 42 3.7 38.7
21:20 1022 30.18 851 25.13 16.4 61.5 43 3.9 39
21:25 1022 30.18 851 25.13 16.2 61.1 43 3.8 38.9
21:30 1022 30.18 851 25.13 16.1 60.9 44 3.8 38.8
21:35 1022 30.18 851 25.13 15.9 60.7 44 3.7 38.6
21:40 1022 30.18 851 25.13 15.9 60.6 44 3.7 38.6
21:45 1022 30.18 851 25.13 15.7 60.3 44 3.7 38.7
21:50 1022 30.18 851 25.13 15.6 60.1 45 3.8 38.8
21:55 1022 30.18 851 25.13 15.6 60 45 3.7 38.7
22:00 1022 30.18 851 25.13 15.6 60 44 3.6 38.5
22:05 1022 30.18 851 25.13 15.6 60.1 44 3.6 38.5
22:10 1022 30.18 851 25.13 15.7 60.2 44 3.6 38.4
22:15 1022 30.18 851 25.13 15.7 60.3 44 3.5 38.2
22:20 1022 30.18 851 25.13 15.8 60.4 44 3.5 38.3
22:25 1022 30.18 851 25.13 15.7 60.2 44 3.7 38.7
22:30 1022 30.18 851 25.13 15.4 59.7 45 3.7 38.7
22:35 1022 30.18 851 25.13 15.1 59.2 45 3.5 38.3
22:40 1022 30.18 851 25.13 14.9 58.9 46 3.5 38.4
22:45 1022 30.18 851 25.13 14.8 58.6 46 3.4 38.2
22:50 1022 30.18 851 25.13 14.7 58.5 47 3.5 38.3
22:55 1022 30.18 851 25.13 14.5 58.1 47 3.4 38.1
23:00 1022 30.18 851 25.13 14.3 57.8 49 3.8 38.8
23:05 1022 30.18 851 25.13 14.1 57.3 50 3.8 38.8
23:10 1022 30.18 851 25.13 13.8 56.8 49 3.4 38.1
23:15 1022 30.18 851 25.13 13.8 56.8 50 3.7 38.7
23:20 1022 30.18 851 25.13 13.6 56.5 50 3.5 38.3
23:25 1022 30.18 851 25.13 13.6 56.4 50 3.4 38.1
23:30 1022 30.18 851 25.13 13.6 56.4 50 3.4 38.2
23:35 1022 30.18 851 25.13 13.6 56.5 50 3.5 38.3
23:40 1022 30.18 851 25.13 13.8 56.8 50 3.5 38.4
23:45 1022 30.18 851 25.13 14.1 57.4 48 3.5 38.3
23:50 1022 30.18 851 25.13 14.2 57.6 48 3.5 38.3
23:55 1022 30.18 851 25.13 14.3 57.7 48 3.6 38.4
24:00 1022 30.18 851 25.13 14.3 57.7 48 3.6 38.5